createdAt,value
2019-04-09T00:00:46.532Z,978.12
2019-04-09T00:01:46.455Z,978.16
2019-04-09T00:02:46.633Z,978.13
2019-04-09T00:03:46.463Z,978.12
2019-04-09T00:04:46.460Z,978.11
2019-04-09T00:05:46.461Z,978.09
2019-04-09T00:06:46.464Z,978.11
2019-04-09T00:07:58.253Z,978.06
2019-04-09T00:08:46.468Z,978.07
2019-04-09T00:09:46.469Z,978.08
2019-04-09T00:10:46.805Z,978.05
2019-04-09T00:11:46.472Z,978.10
2019-04-09T00:12:46.781Z,978.08
2019-04-09T00:13:46.485Z,978.07
2019-04-09T00:14:46.732Z,978.03
2019-04-09T00:15:46.486Z,978.03
2019-04-09T00:16:46.486Z,978.02
2019-04-09T00:17:46.629Z,978.08
2019-04-09T00:18:46.485Z,978.06
2019-04-09T00:19:46.492Z,978.05
2019-04-09T00:20:47.036Z,978.02
2019-04-09T00:21:46.493Z,978.02
2019-04-09T00:22:46.500Z,978.01
2019-04-09T00:23:46.745Z,978.04
2019-04-09T00:24:46.496Z,978.07
2019-04-09T00:25:46.797Z,978.04
2019-04-09T00:26:51.765Z,978.01
2019-04-09T00:27:47.278Z,978.07
2019-04-09T00:28:46.504Z,978.03
2019-04-09T00:29:46.510Z,978.00
2019-04-09T00:30:47.266Z,977.99
2019-04-09T00:31:47.384Z,978.00
2019-04-09T00:32:46.509Z,978.03
2019-04-09T00:33:46.577Z,978.03
2019-04-09T00:34:46.586Z,978.05
2019-04-09T00:35:46.523Z,978.03
2019-04-09T00:36:46.545Z,977.99
2019-04-09T00:37:47.548Z,978.01
2019-04-09T00:38:47.567Z,978.03
2019-04-09T00:39:46.523Z,978.02
2019-04-09T00:40:46.584Z,978.05
2019-04-09T00:41:46.528Z,977.99
2019-04-09T00:42:46.645Z,978.00
2019-04-09T00:43:46.529Z,977.98
2019-04-09T00:44:46.807Z,978.00
2019-04-09T00:45:46.803Z,977.97
2019-04-09T00:46:47.626Z,977.99
2019-04-09T00:47:46.831Z,977.99
2019-04-09T00:48:46.615Z,977.98
2019-04-09T00:49:46.541Z,977.95
2019-04-09T00:50:46.549Z,977.96
2019-04-09T00:51:47.095Z,977.98
2019-04-09T00:52:46.878Z,977.95
2019-04-09T00:53:46.549Z,977.95
2019-04-09T00:54:46.551Z,977.93
2019-04-09T00:55:46.559Z,977.95
2019-04-09T00:56:57.988Z,977.94
2019-04-09T00:57:47.343Z,977.97
2019-04-09T00:58:46.559Z,977.92
2019-04-09T00:59:46.564Z,977.94
2019-04-09T01:00:47.574Z,977.91
2019-04-09T01:01:46.563Z,977.91
2019-04-09T01:02:47.339Z,977.92
2019-04-09T01:03:46.582Z,977.92
2019-04-09T01:04:46.569Z,977.94
2019-04-09T01:05:46.570Z,977.88
2019-04-09T01:06:47.650Z,977.89
2019-04-09T01:07:47.391Z,977.90
2019-04-09T01:08:47.678Z,977.86
2019-04-09T01:09:47.590Z,977.87
2019-04-09T01:10:46.581Z,977.89
2019-04-09T01:11:46.578Z,977.84
2019-04-09T01:12:46.581Z,977.91
2019-04-09T01:13:46.899Z,977.92
2019-04-09T01:14:46.586Z,977.89
2019-04-09T01:15:46.594Z,977.88
2019-04-09T01:16:46.590Z,977.85
2019-04-09T01:17:46.589Z,977.86
2019-04-09T01:18:46.593Z,977.87
2019-04-09T01:19:46.660Z,977.84
2019-04-09T01:20:46.618Z,977.82
2019-04-09T01:21:47.687Z,977.85
2019-04-09T01:22:46.599Z,977.81
2019-04-09T01:23:46.975Z,977.80
2019-04-09T01:24:47.766Z,977.81
2019-04-09T01:25:46.872Z,977.83
2019-04-09T01:26:47.005Z,977.77
2019-04-09T01:27:46.607Z,977.77
2019-04-09T01:28:46.609Z,977.82
2019-04-09T01:29:47.061Z,977.76
2019-04-09T01:30:46.612Z,977.78
2019-04-09T01:31:46.614Z,977.79
2019-04-09T01:32:47.315Z,977.76
2019-04-09T01:33:47.298Z,977.75
2019-04-09T01:34:47.112Z,977.75
2019-04-09T01:35:46.619Z,977.73
2019-04-09T01:36:46.627Z,977.72
2019-04-09T01:37:47.167Z,977.73
2019-04-09T01:38:47.015Z,977.75
2019-04-09T01:39:46.629Z,977.79
2019-04-09T01:40:46.629Z,977.78
2019-04-09T01:41:46.632Z,977.79
2019-04-09T01:42:46.636Z,977.77
2019-04-09T01:43:47.165Z,977.76
2019-04-09T01:44:46.641Z,977.81
2019-04-09T01:45:46.651Z,977.83
2019-04-09T01:46:47.164Z,977.79
2019-04-09T01:47:47.069Z,977.79
2019-04-09T01:48:46.966Z,977.77
2019-04-09T01:49:46.644Z,977.78
2019-04-09T01:50:47.388Z,977.81
2019-04-09T01:51:47.123Z,977.81
2019-04-09T01:52:46.930Z,977.83
2019-04-09T01:53:46.652Z,977.81
2019-04-09T01:54:46.656Z,977.82
2019-04-09T01:55:46.654Z,977.85
2019-04-09T01:56:47.359Z,977.86
2019-04-09T01:57:46.662Z,977.89
2019-04-09T01:58:47.134Z,977.84
2019-04-09T01:59:47.011Z,977.86
2019-04-09T02:00:46.665Z,977.88
2019-04-09T02:01:46.665Z,977.86
2019-04-09T02:02:46.671Z,977.85
2019-04-09T02:03:46.673Z,977.87
2019-04-09T02:04:46.669Z,977.84
2019-04-09T02:05:47.712Z,977.82
2019-04-09T02:06:47.511Z,977.80
2019-04-09T02:07:46.703Z,977.81
2019-04-09T02:08:46.810Z,977.81
2019-04-09T02:09:46.680Z,977.81
2019-04-09T02:10:47.458Z,977.78
2019-04-09T02:11:46.761Z,977.77
2019-04-09T02:12:46.914Z,977.75
2019-04-09T02:13:46.930Z,977.75
2019-04-09T02:14:46.688Z,977.75
2019-04-09T02:15:47.758Z,977.75
2019-04-09T02:16:46.692Z,977.75
2019-04-09T02:17:46.841Z,977.75
2019-04-09T02:18:46.870Z,977.79
2019-04-09T02:19:46.698Z,977.73
2019-04-09T02:20:46.700Z,977.78
2019-04-09T02:21:46.940Z,977.79
2019-04-09T02:22:47.023Z,977.82
2019-04-09T02:23:46.707Z,977.79
2019-04-09T02:24:46.705Z,977.80
2019-04-09T02:25:47.736Z,977.86
2019-04-09T02:26:46.844Z,977.86
2019-04-09T02:27:47.828Z,977.84
2019-04-09T02:28:46.711Z,977.88
2019-04-09T02:29:47.322Z,977.86
2019-04-09T02:30:47.968Z,977.87
2019-04-09T02:31:47.365Z,977.85
2019-04-09T02:32:46.720Z,977.84
2019-04-09T02:33:47.934Z,977.87
2019-04-09T02:34:48.009Z,977.88
2019-04-09T02:35:46.725Z,977.88
2019-04-09T02:36:46.751Z,977.90
2019-04-09T02:37:47.493Z,977.93
2019-04-09T02:38:46.729Z,977.92
2019-04-09T02:39:46.886Z,977.92
2019-04-09T02:40:46.732Z,977.94
2019-04-09T02:41:46.734Z,977.96
2019-04-09T02:42:47.706Z,977.91
2019-04-09T02:43:46.737Z,977.91
2019-04-09T02:44:46.743Z,977.91
2019-04-09T02:45:47.015Z,977.91
2019-04-09T02:46:47.026Z,977.90
2019-04-09T02:47:46.744Z,977.87
2019-04-09T02:48:46.745Z,977.85
2019-04-09T02:49:47.743Z,977.88
2019-04-09T02:50:46.750Z,977.87
2019-04-09T02:51:46.754Z,977.82
2019-04-09T02:52:47.733Z,977.86
2019-04-09T02:53:46.797Z,977.86
2019-04-09T02:54:46.756Z,977.81
2019-04-09T02:55:47.391Z,977.83
2019-04-09T02:56:47.232Z,977.83
2019-04-09T02:57:53.508Z,977.84
2019-04-09T02:58:47.326Z,977.82
2019-04-09T02:59:46.765Z,977.87
2019-04-09T03:00:46.767Z,977.83
2019-04-09T03:01:47.140Z,977.83
2019-04-09T03:02:46.772Z,977.88
2019-04-09T03:03:46.771Z,977.88
2019-04-09T03:04:47.245Z,977.85
2019-04-09T03:05:47.109Z,977.81
2019-04-09T03:06:46.780Z,977.82
2019-04-09T03:07:46.782Z,977.82
2019-04-09T03:08:47.815Z,977.83
2019-04-09T03:09:46.781Z,977.82
2019-04-09T03:10:46.905Z,977.79
2019-04-09T03:11:47.671Z,977.78
2019-04-09T03:12:47.589Z,977.79
2019-04-09T03:13:46.790Z,977.72
2019-04-09T03:14:46.865Z,977.74
2019-04-09T03:15:46.792Z,977.72
2019-04-09T03:16:46.798Z,977.68
2019-04-09T03:17:46.796Z,977.69
2019-04-09T03:18:47.607Z,977.72
2019-04-09T03:19:47.423Z,977.70
2019-04-09T03:20:46.806Z,977.74
2019-04-09T03:21:46.807Z,977.72
2019-04-09T03:22:46.803Z,977.73
2019-04-09T03:23:46.805Z,977.73
2019-04-09T03:24:47.442Z,977.72
2019-04-09T03:25:46.808Z,977.74
2019-04-09T03:26:47.382Z,977.72
2019-04-09T03:27:58.808Z,977.71
2019-04-09T03:28:46.811Z,977.71
2019-04-09T03:29:47.011Z,977.72
2019-04-09T03:30:46.836Z,977.72
2019-04-09T03:31:47.837Z,977.72
2019-04-09T03:32:48.356Z,977.68
2019-04-09T03:33:46.821Z,977.68
2019-04-09T03:34:48.045Z,977.69
2019-04-09T03:35:47.697Z,977.68
2019-04-09T03:36:47.752Z,977.66
2019-04-09T03:37:46.826Z,977.65
2019-04-09T03:38:46.828Z,977.64
2019-04-09T03:39:46.929Z,977.68
2019-04-09T03:40:46.831Z,977.66
2019-04-09T03:41:47.586Z,977.66
2019-04-09T03:42:46.834Z,977.68
2019-04-09T03:43:46.837Z,977.65
2019-04-09T03:44:46.849Z,977.66
2019-04-09T03:45:47.150Z,977.64
2019-04-09T03:46:46.882Z,977.62
2019-04-09T03:47:46.842Z,977.62
2019-04-09T03:48:46.844Z,977.63
2019-04-09T03:49:46.850Z,977.64
2019-04-09T03:50:46.847Z,977.64
2019-04-09T03:51:46.849Z,977.67
2019-04-09T03:52:47.655Z,977.63
2019-04-09T03:53:47.705Z,977.65
2019-04-09T03:54:46.984Z,977.63
2019-04-09T03:55:47.002Z,977.62
2019-04-09T03:56:46.856Z,977.63
2019-04-09T03:57:46.859Z,977.65
2019-04-09T03:58:46.860Z,977.65
2019-04-09T03:59:46.860Z,977.66
2019-04-09T04:00:47.482Z,977.65
2019-04-09T04:01:46.873Z,977.65
2019-04-09T04:02:46.870Z,977.65
2019-04-09T04:03:46.867Z,977.66
2019-04-09T04:04:46.870Z,977.63
2019-04-09T04:05:47.082Z,977.60
2019-04-09T04:06:46.877Z,977.59
2019-04-09T04:07:46.881Z,977.58
2019-04-09T04:08:47.565Z,977.58
2019-04-09T04:09:47.662Z,977.59
2019-04-09T04:10:46.879Z,977.57
2019-04-09T04:11:47.833Z,977.60
2019-04-09T04:12:47.885Z,977.57
2019-04-09T04:13:47.191Z,977.58
2019-04-09T04:14:47.311Z,977.56
2019-04-09T04:15:46.893Z,977.58
2019-04-09T04:16:46.889Z,977.60
2019-04-09T04:17:46.890Z,977.62
2019-04-09T04:18:46.895Z,977.63
2019-04-09T04:19:46.893Z,977.59
2019-04-09T04:20:47.427Z,977.58
2019-04-09T04:21:46.912Z,977.55
2019-04-09T04:22:46.899Z,977.60
2019-04-09T04:23:47.495Z,977.59
2019-04-09T04:24:47.381Z,977.60
2019-04-09T04:25:46.955Z,977.56
2019-04-09T04:26:47.023Z,977.57
2019-04-09T04:27:47.939Z,977.52
2019-04-09T04:28:47.981Z,977.53
2019-04-09T04:29:48.026Z,977.59
2019-04-09T04:30:46.911Z,977.54
2019-04-09T04:31:46.911Z,977.55
2019-04-09T04:32:47.712Z,977.57
2019-04-09T04:33:47.642Z,977.55
2019-04-09T04:34:47.665Z,977.57
2019-04-09T04:35:47.103Z,977.56
2019-04-09T04:36:47.812Z,977.58
2019-04-09T04:37:47.384Z,977.57
2019-04-09T04:38:47.539Z,977.56
2019-04-09T04:39:46.924Z,977.57
2019-04-09T04:40:47.456Z,977.57
2019-04-09T04:41:47.048Z,977.57
2019-04-09T04:42:46.996Z,977.56
2019-04-09T04:43:47.750Z,977.59
2019-04-09T04:44:46.934Z,977.58
2019-04-09T04:45:46.936Z,977.59
2019-04-09T04:46:46.936Z,977.57
2019-04-09T04:47:46.944Z,977.60
2019-04-09T04:48:46.940Z,977.61
2019-04-09T04:49:46.942Z,977.63
2019-04-09T04:50:47.999Z,977.62
2019-04-09T04:51:46.944Z,977.62
2019-04-09T04:52:46.956Z,977.63
2019-04-09T04:53:46.948Z,977.60
2019-04-09T04:54:46.950Z,977.57
2019-04-09T04:55:46.951Z,977.60
2019-04-09T04:56:47.970Z,977.58
2019-04-09T04:57:46.958Z,977.57
2019-04-09T04:58:50.092Z,977.57
2019-04-09T04:59:46.959Z,977.62
2019-04-09T05:00:47.057Z,977.59
2019-04-09T05:01:46.968Z,977.60
2019-04-09T05:02:47.106Z,977.63
2019-04-09T05:03:46.967Z,977.61
2019-04-09T05:04:46.966Z,977.60
2019-04-09T05:05:47.131Z,977.62
2019-04-09T05:06:47.763Z,977.60
2019-04-09T05:07:47.983Z,977.63
2019-04-09T05:08:47.887Z,977.62
2019-04-09T05:09:46.976Z,977.65
2019-04-09T05:10:49.044Z,977.69
2019-04-09T05:11:46.979Z,977.69
2019-04-09T05:12:47.067Z,977.76
2019-04-09T05:13:47.142Z,977.72
2019-04-09T05:14:46.990Z,977.79
2019-04-09T05:15:48.598Z,977.74
2019-04-09T05:16:46.987Z,977.73
2019-04-09T05:17:46.990Z,977.76
2019-04-09T05:18:47.335Z,977.75
2019-04-09T05:19:46.996Z,977.74
2019-04-09T05:20:46.995Z,977.76
2019-04-09T05:21:47.001Z,977.80
2019-04-09T05:22:47.003Z,977.81
2019-04-09T05:23:47.001Z,977.84
2019-04-09T05:24:47.052Z,977.81
2019-04-09T05:25:47.338Z,977.88
2019-04-09T05:26:47.006Z,977.85
2019-04-09T05:27:47.800Z,977.85
2019-04-09T05:28:51.655Z,977.93
2019-04-09T05:29:47.012Z,977.89
2019-04-09T05:30:47.013Z,977.88
2019-04-09T05:31:48.105Z,977.90
2019-04-09T05:32:47.851Z,977.90
2019-04-09T05:33:47.175Z,977.95
2019-04-09T05:34:47.022Z,977.93
2019-04-09T05:35:47.483Z,977.95
2019-04-09T05:36:47.959Z,977.96
2019-04-09T05:37:47.112Z,977.97
2019-04-09T05:38:47.034Z,977.97
2019-04-09T05:39:47.031Z,977.98
2019-04-09T05:40:47.485Z,977.99
2019-04-09T05:41:47.039Z,977.99
2019-04-09T05:42:47.685Z,978.04
2019-04-09T05:43:48.041Z,977.99
2019-04-09T05:44:47.410Z,978.02
2019-04-09T05:45:47.047Z,978.05
2019-04-09T05:46:47.852Z,977.98
2019-04-09T05:47:47.053Z,977.99
2019-04-09T05:48:47.055Z,978.02
2019-04-09T05:49:47.059Z,978.03
2019-04-09T05:50:47.062Z,978.02
2019-04-09T05:51:49.945Z,978.02
2019-04-09T05:52:47.140Z,978.04
2019-04-09T05:53:47.135Z,978.05
2019-04-09T05:54:47.557Z,978.08
2019-04-09T05:55:47.306Z,978.05
2019-04-09T05:56:47.455Z,978.05
2019-04-09T05:57:47.080Z,978.06
2019-04-09T05:58:58.796Z,978.04
2019-04-09T05:59:47.829Z,978.05
2019-04-09T06:00:47.093Z,978.06
2019-04-09T06:01:47.111Z,978.04
2019-04-09T06:02:47.095Z,978.09
2019-04-09T06:03:47.314Z,978.00
2019-04-09T06:04:47.912Z,978.03
2019-04-09T06:05:47.106Z,978.01
2019-04-09T06:06:47.107Z,978.05
2019-04-09T06:07:47.232Z,978.03
2019-04-09T06:08:47.105Z,978.04
2019-04-09T06:09:47.232Z,978.05
2019-04-09T06:10:47.348Z,978.02
2019-04-09T06:11:47.821Z,978.06
2019-04-09T06:12:47.199Z,978.00
2019-04-09T06:13:47.117Z,978.06
2019-04-09T06:14:47.125Z,978.03
2019-04-09T06:15:47.531Z,978.04
2019-04-09T06:16:48.224Z,978.02
2019-04-09T06:17:47.755Z,978.01
2019-04-09T06:18:48.245Z,978.02
2019-04-09T06:19:47.128Z,978.00
2019-04-09T06:20:47.136Z,978.01
2019-04-09T06:21:47.135Z,978.02
2019-04-09T06:22:47.707Z,978.02
2019-04-09T06:23:48.005Z,978.04
2019-04-09T06:24:47.794Z,978.02
2019-04-09T06:25:47.142Z,977.98
2019-04-09T06:26:47.146Z,977.97
2019-04-09T06:27:47.744Z,977.99
2019-04-09T06:28:47.315Z,977.97
2019-04-09T06:29:47.996Z,977.95
2019-04-09T06:30:47.153Z,977.95
2019-04-09T06:31:47.162Z,977.96
2019-04-09T06:32:47.802Z,978.00
2019-04-09T06:33:47.162Z,978.00
2019-04-09T06:34:47.164Z,977.97
2019-04-09T06:35:47.164Z,977.98
2019-04-09T06:36:47.988Z,977.99
2019-04-09T06:37:47.171Z,977.94
2019-04-09T06:38:48.111Z,977.98
2019-04-09T06:39:47.598Z,977.97
2019-04-09T06:40:47.180Z,977.94
2019-04-09T06:41:47.823Z,977.93
2019-04-09T06:42:48.261Z,978.01
2019-04-09T06:43:47.185Z,977.94
2019-04-09T06:44:47.186Z,977.98
2019-04-09T06:45:47.276Z,977.97
2019-04-09T06:46:47.201Z,978.00
2019-04-09T06:47:47.195Z,977.98
2019-04-09T06:48:47.971Z,977.96
2019-04-09T06:49:47.196Z,977.97
2019-04-09T06:50:47.341Z,977.98
2019-04-09T06:51:50.894Z,977.96
2019-04-09T06:52:47.202Z,977.91
2019-04-09T06:53:47.980Z,977.95
2019-04-09T06:54:56.212Z,977.94
2019-04-09T06:55:47.208Z,977.94
2019-04-09T06:56:47.547Z,977.96
2019-04-09T06:57:47.859Z,977.92
2019-04-09T06:58:47.220Z,977.91
2019-04-09T06:59:47.220Z,977.90
2019-04-09T07:00:47.224Z,977.90
2019-04-09T07:01:47.227Z,977.88
2019-04-09T07:02:47.224Z,977.90
2019-04-09T07:03:47.232Z,977.92
2019-04-09T07:04:48.080Z,977.87
2019-04-09T07:05:47.235Z,977.87
2019-04-09T07:06:47.234Z,977.86
2019-04-09T07:07:47.759Z,977.83
2019-04-09T07:08:47.239Z,977.82
2019-04-09T07:09:47.584Z,977.83
2019-04-09T07:10:47.245Z,977.85
2019-04-09T07:11:47.247Z,977.83
2019-04-09T07:12:47.250Z,977.85
2019-04-09T07:13:47.252Z,977.83
2019-04-09T07:14:47.255Z,977.80
2019-04-09T07:15:48.038Z,977.82
2019-04-09T07:16:47.282Z,977.81
2019-04-09T07:17:47.265Z,977.80
2019-04-09T07:18:47.319Z,977.85
2019-04-09T07:19:47.347Z,977.82
2019-04-09T07:20:47.274Z,977.82
2019-04-09T07:21:47.280Z,977.80
2019-04-09T07:22:47.271Z,977.76
2019-04-09T07:23:48.125Z,977.78
2019-04-09T07:24:47.284Z,977.80
2019-04-09T07:25:47.278Z,977.82
2019-04-09T07:26:48.832Z,977.76
2019-04-09T07:27:51.447Z,977.77
2019-04-09T07:28:47.289Z,977.75
2019-04-09T07:29:55.615Z,977.75
2019-04-09T07:30:47.718Z,977.73
2019-04-09T07:31:47.295Z,977.75
2019-04-09T07:32:47.922Z,977.77
2019-04-09T07:33:48.885Z,977.74
2019-04-09T07:34:50.793Z,977.77
2019-04-09T07:35:47.308Z,977.82
2019-04-09T07:36:47.310Z,977.78
2019-04-09T07:37:48.023Z,977.76
2019-04-09T07:38:50.672Z,977.79
2019-04-09T07:39:48.068Z,977.78
2019-04-09T07:40:47.432Z,977.76
2019-04-09T07:41:49.429Z,977.79
2019-04-09T07:42:49.381Z,977.76
2019-04-09T07:43:49.342Z,977.78
2019-04-09T07:44:47.751Z,977.79
2019-04-09T07:45:47.337Z,977.79
2019-04-09T07:46:49.378Z,977.80
2019-04-09T07:47:48.057Z,977.81
2019-04-09T07:48:48.332Z,977.84
2019-04-09T07:49:47.351Z,977.89
2019-04-09T07:50:47.367Z,977.91
2019-04-09T07:51:49.737Z,977.87
2019-04-09T07:52:48.295Z,977.89
2019-04-09T07:53:48.640Z,977.96
2019-04-09T07:54:49.592Z,977.96
2019-04-09T07:55:47.384Z,977.96
2019-04-09T07:56:47.382Z,977.94
2019-04-09T07:57:48.394Z,978.01
2019-04-09T07:58:47.383Z,977.97
2019-04-09T07:59:59.968Z,977.95
2019-04-09T08:00:47.750Z,977.96
2019-04-09T08:01:48.205Z,977.95
2019-04-09T08:02:49.016Z,977.92
2019-04-09T08:03:47.395Z,977.90
2019-04-09T08:04:49.104Z,977.92
2019-04-09T08:05:48.253Z,977.93
2019-04-09T08:06:49.655Z,977.92
2019-04-09T08:07:47.442Z,977.87
2019-04-09T08:08:48.602Z,977.89
2019-04-09T08:09:47.427Z,977.91
2019-04-09T08:10:48.382Z,977.83
2019-04-09T08:11:47.450Z,977.89
2019-04-09T08:12:49.589Z,977.88
2019-04-09T08:13:50.354Z,977.89
2019-04-09T08:14:47.436Z,977.84
2019-04-09T08:15:47.503Z,977.90
2019-04-09T08:16:48.304Z,977.88
2019-04-09T08:17:50.307Z,977.93
2019-04-09T08:18:47.443Z,977.87
2019-04-09T08:19:47.445Z,977.85
2019-04-09T08:20:48.299Z,977.87
2019-04-09T08:21:47.941Z,977.89
2019-04-09T08:22:48.530Z,977.90
2019-04-09T08:23:49.590Z,977.86
2019-04-09T08:24:48.246Z,977.89
2019-04-09T08:25:48.171Z,977.89
2019-04-09T08:26:47.478Z,977.86
2019-04-09T08:27:47.471Z,977.82
2019-04-09T08:28:50.435Z,977.84
2019-04-09T08:29:48.386Z,977.82
2019-04-09T08:30:47.484Z,977.77
2019-04-09T08:31:57.233Z,977.81
2019-04-09T08:32:47.609Z,977.79
2019-04-09T08:33:50.606Z,977.82
2019-04-09T08:34:47.495Z,977.83
2019-04-09T08:35:47.973Z,977.78
2019-04-09T08:36:48.689Z,977.80
2019-04-09T08:37:51.537Z,977.80
2019-04-09T08:38:47.636Z,977.80
2019-04-09T08:39:47.514Z,977.81
2019-04-09T08:40:50.844Z,977.78
2019-04-09T08:41:48.569Z,977.78
2019-04-09T08:42:47.519Z,977.81
2019-04-09T08:43:47.865Z,977.80
2019-04-09T08:44:49.465Z,977.86
2019-04-09T08:45:48.730Z,977.90
2019-04-09T08:46:48.301Z,977.86
2019-04-09T08:47:47.986Z,977.89
2019-04-09T08:48:48.395Z,977.87
2019-04-09T08:49:51.980Z,977.87
2019-04-09T08:50:47.544Z,977.89
2019-04-09T08:51:47.559Z,977.91
2019-04-09T08:52:48.518Z,977.88
2019-04-09T08:53:48.769Z,977.87
2019-04-09T08:54:48.519Z,977.89
2019-04-09T08:55:47.560Z,977.91
2019-04-09T08:56:48.363Z,977.92
2019-04-09T08:57:49.366Z,977.86
2019-04-09T08:58:48.158Z,977.86
2019-04-09T08:59:47.579Z,977.88
2019-04-09T09:01:20.989Z,977.87
2019-04-09T09:02:02.551Z,977.84
2019-04-09T09:02:51.404Z,977.89
2019-04-09T09:03:54.755Z,977.85
2019-04-09T09:04:53.984Z,977.86
2019-04-09T09:05:53.795Z,977.90
2019-04-09T09:06:51.909Z,977.88
2019-04-09T09:07:48.309Z,977.91
2019-04-09T09:08:48.498Z,977.92
2019-04-09T09:09:49.284Z,977.89
2019-04-09T09:10:51.277Z,977.86
2019-04-09T09:11:47.732Z,977.85
2019-04-09T09:12:47.616Z,977.84
2019-04-09T09:13:47.780Z,977.84
2019-04-09T09:14:47.796Z,977.85
2019-04-09T09:15:49.743Z,977.85
2019-04-09T09:16:47.837Z,977.85
2019-04-09T09:17:51.466Z,977.82
2019-04-09T09:18:47.835Z,977.85
2019-04-09T09:19:49.903Z,977.83
2019-04-09T09:20:49.022Z,977.82
2019-04-09T09:21:47.649Z,977.84
2019-04-09T09:22:48.144Z,977.82
2019-04-09T09:23:48.817Z,977.89
2019-04-09T09:24:51.782Z,977.90
2019-04-09T09:25:47.661Z,977.88
2019-04-09T09:26:48.370Z,977.89
2019-04-09T09:27:47.805Z,977.93
2019-04-09T09:28:47.678Z,977.92
2019-04-09T09:29:47.678Z,977.96
2019-04-09T09:31:02.330Z,977.94
2019-04-09T09:31:47.687Z,977.90
2019-04-09T09:32:48.162Z,977.91
2019-04-09T09:33:50.515Z,977.92
2019-04-09T09:34:51.994Z,977.93
2019-04-09T09:35:47.742Z,977.94
2019-04-09T09:36:47.973Z,977.91
2019-04-09T09:37:51.464Z,977.96
2019-04-09T09:38:48.280Z,977.93
2019-04-09T09:39:47.715Z,977.91
2019-04-09T09:40:47.719Z,977.91
2019-04-09T09:41:47.725Z,977.91
2019-04-09T09:42:48.742Z,977.87
2019-04-09T09:43:49.146Z,977.93
2019-04-09T09:44:51.732Z,977.91
2019-04-09T09:45:48.218Z,977.86
2019-04-09T09:46:47.744Z,977.86
2019-04-09T09:47:48.718Z,977.81
2019-04-09T09:48:50.078Z,977.86
2019-04-09T09:49:48.549Z,977.82
2019-04-09T09:50:47.764Z,977.76
2019-04-09T09:51:49.071Z,977.80
2019-04-09T09:52:51.581Z,977.79
2019-04-09T09:53:48.287Z,977.80
2019-04-09T09:54:48.447Z,977.83
2019-04-09T09:55:54.759Z,977.79
2019-04-09T09:56:47.926Z,977.74
2019-04-09T09:57:48.900Z,977.75
2019-04-09T09:58:50.218Z,977.79
2019-04-09T09:59:47.791Z,977.75
2019-04-09T10:00:48.824Z,977.73
2019-04-09T10:01:50.458Z,977.73
2019-04-09T10:02:47.876Z,977.73
2019-04-09T10:03:50.795Z,977.73
2019-04-09T10:04:51.082Z,977.74
2019-04-09T10:05:47.825Z,977.72
2019-04-09T10:06:50.621Z,977.71
2019-04-09T10:07:55.416Z,977.67
2019-04-09T10:08:48.753Z,977.68
2019-04-09T10:09:48.765Z,977.66
2019-04-09T10:10:48.106Z,977.63
2019-04-09T10:11:53.138Z,977.64
2019-04-09T10:12:50.947Z,977.64
2019-04-09T10:13:48.602Z,977.64
2019-04-09T10:14:48.075Z,977.64
2019-04-09T10:15:48.693Z,977.65
2019-04-09T10:16:50.580Z,977.65
2019-04-09T10:17:48.922Z,977.66
2019-04-09T10:18:59.024Z,977.62
2019-04-09T10:19:48.507Z,977.66
2019-04-09T10:20:49.353Z,977.68
2019-04-09T10:21:49.660Z,977.69
2019-04-09T10:22:47.882Z,977.65
2019-04-09T10:23:47.888Z,977.63
2019-04-09T10:24:51.854Z,977.64
2019-04-09T10:25:48.132Z,977.62
2019-04-09T10:26:49.699Z,977.59
2019-04-09T10:27:50.100Z,977.62
2019-04-09T10:28:47.926Z,977.59
2019-04-09T10:29:47.953Z,977.60
2019-04-09T10:30:49.158Z,977.60
2019-04-09T10:31:50.370Z,977.62
2019-04-09T10:32:48.281Z,977.60
2019-04-09T10:33:50.693Z,977.58
2019-04-09T10:34:47.930Z,977.56
2019-04-09T10:35:48.826Z,977.56
2019-04-09T10:36:47.941Z,977.56
2019-04-09T10:37:50.326Z,977.52
2019-04-09T10:38:47.948Z,977.56
2019-04-09T10:39:47.952Z,977.52
2019-04-09T10:40:50.367Z,977.58
2019-04-09T10:41:51.087Z,977.52
2019-04-09T10:42:48.379Z,977.51
2019-04-09T10:43:49.159Z,977.51
2019-04-09T10:44:50.003Z,977.51
2019-04-09T10:45:49.020Z,977.56
2019-04-09T10:46:48.362Z,977.50
2019-04-09T10:47:47.985Z,977.49
2019-04-09T10:48:49.174Z,977.50
2019-04-09T10:49:47.995Z,977.51
2019-04-09T10:50:48.192Z,977.48
2019-04-09T10:51:48.105Z,977.51
2019-04-09T10:52:51.681Z,977.49
2019-04-09T10:53:48.152Z,977.43
2019-04-09T10:54:49.056Z,977.48
2019-04-09T10:55:52.353Z,977.42
2019-04-09T10:56:50.113Z,977.45
2019-04-09T10:57:48.779Z,977.42
2019-04-09T10:58:52.547Z,977.42
2019-04-09T10:59:49.082Z,977.42
2019-04-09T11:00:49.464Z,977.40
2019-04-09T11:01:54.450Z,977.44
2019-04-09T11:02:48.045Z,977.44
2019-04-09T11:03:50.546Z,977.49
2019-04-09T11:04:48.066Z,977.49
2019-04-09T11:05:52.113Z,977.46
2019-04-09T11:06:48.782Z,977.48
2019-04-09T11:07:48.084Z,977.48
2019-04-09T11:08:48.069Z,977.47
2019-04-09T11:09:48.603Z,977.48
2019-04-09T11:10:48.668Z,977.45
2019-04-09T11:11:51.777Z,977.46
2019-04-09T11:12:48.087Z,977.46
2019-04-09T11:13:48.090Z,977.46
2019-04-09T11:14:49.781Z,977.45
2019-04-09T11:15:53.281Z,977.45
2019-04-09T11:16:48.575Z,977.46
2019-04-09T11:17:48.876Z,977.44
2019-04-09T11:18:48.254Z,977.43
2019-04-09T11:19:48.116Z,977.43
2019-04-09T11:20:48.944Z,977.42
2019-04-09T11:21:48.128Z,977.38
2019-04-09T11:22:50.997Z,977.39
2019-04-09T11:23:48.234Z,977.38
2019-04-09T11:24:48.213Z,977.35
2019-04-09T11:25:48.145Z,977.38
2019-04-09T11:26:50.683Z,977.36
2019-04-09T11:27:49.279Z,977.38
2019-04-09T11:28:48.159Z,977.38
2019-04-09T11:29:48.169Z,977.37
2019-04-09T11:30:48.210Z,977.37
2019-04-09T11:31:53.273Z,977.38
2019-04-09T11:32:48.623Z,977.41
2019-04-09T11:33:48.181Z,977.36
2019-04-09T11:34:48.188Z,977.38
2019-04-09T11:35:48.426Z,977.39
2019-04-09T11:36:48.193Z,977.38
2019-04-09T11:37:48.736Z,977.38
2019-04-09T11:38:48.204Z,977.40
2019-04-09T11:39:48.339Z,977.39
2019-04-09T11:40:48.216Z,977.37
2019-04-09T11:41:48.216Z,977.36
2019-04-09T11:42:48.222Z,977.36
2019-04-09T11:43:48.786Z,977.36
2019-04-09T11:44:49.106Z,977.34
2019-04-09T11:45:48.257Z,977.35
2019-04-09T11:46:48.241Z,977.37
2019-04-09T11:47:48.247Z,977.35
2019-04-09T11:48:48.248Z,977.35
2019-04-09T11:49:48.874Z,977.37
2019-04-09T11:50:48.893Z,977.31
2019-04-09T11:51:48.263Z,977.35
2019-04-09T11:52:48.283Z,977.31
2019-04-09T11:53:48.336Z,977.35
2019-04-09T11:54:49.016Z,977.31
2019-04-09T11:55:48.357Z,977.30
2019-04-09T11:56:48.489Z,977.33
2019-04-09T11:57:48.763Z,977.32
2019-04-09T11:58:48.824Z,977.28
2019-04-09T11:59:48.973Z,977.27
2019-04-09T12:00:48.601Z,977.29
2019-04-09T12:02:00.961Z,977.23
2019-04-09T12:02:48.487Z,977.21
2019-04-09T12:03:49.453Z,977.19
2019-04-09T12:04:48.324Z,977.19
2019-04-09T12:05:49.117Z,977.17
2019-04-09T12:06:49.300Z,977.17
2019-04-09T12:07:48.445Z,977.21
2019-04-09T12:08:48.705Z,977.24
2019-04-09T12:09:48.357Z,977.23
2019-04-09T12:10:48.348Z,977.24
2019-04-09T12:11:51.625Z,977.24
2019-04-09T12:12:48.378Z,977.23
2019-04-09T12:13:48.679Z,977.25
2019-04-09T12:14:48.524Z,977.23
2019-04-09T12:15:48.922Z,977.24
2019-04-09T12:16:48.372Z,977.27
2019-04-09T12:17:48.375Z,977.23
2019-04-09T12:18:49.196Z,977.22
2019-04-09T12:19:59.140Z,977.18
2019-04-09T12:20:48.772Z,977.17
2019-04-09T12:21:49.090Z,977.16
2019-04-09T12:22:49.023Z,977.19
2019-04-09T12:23:48.900Z,977.18
2019-04-09T12:24:48.404Z,977.20
2019-04-09T12:25:49.169Z,977.17
2019-04-09T12:26:48.716Z,977.21
2019-04-09T12:27:48.651Z,977.25
2019-04-09T12:28:49.001Z,977.25